Nebraska City, NE

5:04 AM CST on November 23, 2014 (GMT -0600)
MesoWest NEBCTY NE US UPR | Change Station
CLOSE
Current Station
Personal Weather Station
Location: Nebraska City, NE
Elevation: 994 ft
Nearby Weather Stations

Elev 994 ft 40.69 °N, 95.87 °W | Updated 4 hours ago

Drizzle
Drizzle
53.0 °F
Feels Like 53.0 °F
N
-
Wind Variable Wind from North

Today
High -- | Low -- °F
--% Chance of Precip.
Yesterday
High -- | Low -- °F
Precip. -- in
7:19 AM 5:00 PM
New Moon, 1% visible
Pressure 29.50 in
Visibility 4.0 miles
Clouds Scattered Clouds 200 ft
Overcast 900 ft
Dew Point Not available.
Humidity Not available.
Rainfall -999.00 in
Snow Depth Not available.
UV 0 out of 12
Pollen .10 out of 12
Air Quality Not available.
Flu Activity Not available.
METAR KAFK 231055Z AUTO 16004KT 4SM DZ SCT002 OVC009 11/11 A2950 RMK AO2 T01100110

More Conditions Fewer Conditions

Pressure 29.50 in
Visibility 4.0 miles
Clouds Scattered Clouds 200 ft
Overcast 900 ft
Dew Point Not available.
Humidity Not available.
Rainfall -999.00 in
Snow Depth Not available.
UV 0 out of 12
Pollen .10 out of 12
Air Quality Not available.
Flu Activity Not available.
METAR KAFK 231055Z AUTO 16004KT 4SM DZ SCT002 OVC009 11/11 A2950 RMK AO2 T01100110

More Conditions Fewer Conditions

10-Day Weather Forecast

Almanac

Astronomy

Nov. 23, 2014 Rise Set
Actual Time
Civil Twilight
Nautical Twilight
Astronomical Twilight
Moon
Length of Visible Light
Length of Day
Tomorrow will be .
, % of the Moon is Illuminated

Today's Extremes

State Highs State Lows

Community

WunderPhotos

Upload Photos

1,773,033 photos uploaded!

WunderBlogs® & News

Nearby

Air Quality

  Air Quality AQ Index Pollutant
Not available.

Snow Depth

Station Depth Elevation

Earthquake Activity

City Distance Mag. Time & Date
Minimum magnitude displayed is 2.5.

Coastal Water Temperatures

Place Temperature

Nearby Weather Stations